»·PEaware :: N326MC KABQ-KAMA

N326MC :: KABQ-KAMA

FLIGHT INFORMATION

Flight Status: Arrived
Operator: Privately registered:
United States
More flights under this callsign
Pilot: Anonymous 5456 (5456)
Aircraft: BOEING 737-200
(B732)
More flights by this aircraft type
Origin: KABQ Albuquerque Intl Sunport
United States
Destination: KAMA Amarillo Intl
United States
More flights between these airports :: More routes between these airports
Route: +ACH TCC J6 PNH
File this flight plan on PilotEdge
Remarks:
Altitude:
(Current/Filed)
23,000ft
Speed:
(Current/Filed)
480kts
Departed: 13-Jan-18 12:23 PM
Arrived: 13-Jan-18 01:05 PM
Distance/Time
Traveled:
241nm/0:42
Distance/Time
To Go:
Arrived

Flight Plot

Page will automatically refresh every two minutes.

Flight plan parsing failed; only flown route is shown


Map Options




Map Legend


Flown Route
Filed Route
Departure Airport
Arrival Airport
Navaid (VOR, NDB)
Fix

Horizontal Profiles

Position Reports

Time Latitude Longitude Heading Altitude Ground
Speed
13-Jan-18 12:09 35.036961 -106.616703 344 5363ft 0kts
13-Jan-18 12:10 35.036961 -106.616703 344 5363ft 0kts
13-Jan-18 12:11 35.036961 -106.616703 344 5363ft 0kts
13-Jan-18 12:12 35.036961 -106.616703 344 5363ft 0kts
13-Jan-18 12:13 35.036961 -106.616703 344 5363ft 0kts
13-Jan-18 12:14 35.036961 -106.616703 344 5363ft 0kts
13-Jan-18 12:15 35.036961 -106.616703 344 5363ft 0kts
13-Jan-18 12:16 35.036961 -106.616703 344 5363ft 0kts
13-Jan-18 12:17 35.036961 -106.616703 344 5363ft 0kts
13-Jan-18 12:18 35.036961 -106.616703 344 5363ft 0kts
13-Jan-18 12:19 35.036903 -106.616683 344 5363ft 2kts
13-Jan-18 12:20 35.036350 -106.616790 44 5363ft 1kts
13-Jan-18 12:21 35.036332 -106.616812 44 5363ft 0kts
13-Jan-18 12:22 35.036332 -106.616812 44 5363ft 0kts
13-Jan-18 12:23 35.036332 -106.616812 44 5363ft 0kts
13-Jan-18 12:24 35.036332 -106.616812 44 5363ft 0kts
13-Jan-18 12:25 35.036466 -106.616585 74 5363ft 7kts
13-Jan-18 12:26 35.038949 -106.615506 306 5363ft 18kts
13-Jan-18 12:27 35.042512 -106.621108 309 5363ft 20kts
13-Jan-18 12:28 35.044340 -106.620570 92 5363ft 5kts
13-Jan-18 12:29 35.044250 -106.600364 90 5365ft 168kts
13-Jan-18 12:30 35.061946 -106.550814 350 7785ft 196kts
13-Jan-18 12:31 35.091633 -106.603304 297 10169ft 197kts
13-Jan-18 12:32 35.129185 -106.655020 349 11177ft 283kts
13-Jan-18 12:33 35.210158 -106.628386 41 13633ft 328kts
13-Jan-18 12:34 35.217917 -106.517436 100 15941ft 366kts
13-Jan-18 12:35 35.203958 -106.393698 92 18110ft 378kts
13-Jan-18 12:36 35.195394 -106.268741 91 19974ft 389kts
13-Jan-18 12:37 35.186915 -106.136499 90 21675ft 400kts
13-Jan-18 12:38 35.178151 -106.000920 90 23191ft 410kts
13-Jan-18 12:39 35.168718 -105.856811 90 23456ft 448kts
13-Jan-18 12:40 35.158169 -105.699611 91 23452ft 482kts
13-Jan-18 12:41 35.146804 -105.533698 91 23582ft 502kts
13-Jan-18 12:42 35.134992 -105.365041 91 24804ft 490kts
13-Jan-18 12:43 35.123339 -105.197363 91 23355ft 499kts
13-Jan-18 12:44 35.113222 -105.040104 85 23339ft 442kts
13-Jan-18 12:45 35.119713 -104.893218 81 23365ft 430kts
13-Jan-18 12:46 35.127585 -104.743846 81 23377ft 453kts
13-Jan-18 12:47 35.135672 -104.587448 81 23376ft 470kts
13-Jan-18 12:48 35.143762 -104.427035 82 23376ft 482kts
13-Jan-18 12:49 35.151521 -104.269058 82 23369ft 490kts
13-Jan-18 12:50 35.159482 -104.102413 82 23373ft 495kts
13-Jan-18 12:51 35.167319 -103.933547 82 23393ft 498kts
13-Jan-18 12:52 35.174952 -103.764010 82 23400ft 501kts
13-Jan-18 12:53 35.182303 -103.593936 83 23489ft 501kts
13-Jan-18 12:54 35.188047 -103.427570 83 23402ft 484kts
13-Jan-18 12:55 35.193468 -103.268884 83 23394ft 481kts
13-Jan-18 12:56 35.198740 -103.105987 83 22922ft 492kts
13-Jan-18 12:57 35.203897 -102.940693 84 20837ft 491kts
13-Jan-18 12:58 35.208701 -102.777848 85 18920ft 485kts
13-Jan-18 12:59 35.213140 -102.620258 86 17402ft 464kts
13-Jan-18 13:00 35.217275 -102.466871 87 15519ft 450kts
13-Jan-18 13:01 35.221981 -102.322399 87 13702ft 431kts
13-Jan-18 13:02 35.228730 -102.181104 86 11855ft 415kts
13-Jan-18 13:03 35.235475 -102.049172 86 9938ft 360kts
13-Jan-18 13:04 35.242395 -101.944673 86 8863ft 279kts
13-Jan-18 13:05 35.249442 -101.855563 86 7392ft 258kts
13-Jan-18 13:06 35.256643 -101.771906 84 6329ft 241kts
13-Jan-18 13:07 35.295689 -101.718722 38 6035ft 196kts
13-Jan-18 13:08 35.294483 -101.674688 159 5636ft 159kts
13-Jan-18 13:09 35.260298 -101.661269 222 4847ft 123kts
13-Jan-18 13:10 35.237709 -101.691702 225 3944ft 121kts
13-Jan-18 13:11 35.220837 -101.712860 233 3615ft 23kts
13-Jan-18 13:12 35.218278 -101.711013 138 3615ft 13kts
13-Jan-18 13:13 35.218658 -101.708761 102 3615ft 7kts

Navigation Log

Ident Type
Flight plan parsing failed, navigation log unavailable